sensor_id;sensor_type;location;lat;lon;timestamp;pressure;altitude;pressure_sealevel;temperature;humidity
23281;BME280;11809;56.390;-3.266;2023-01-28T00:01:56;102368.19;;;15.37;49.12
23281;BME280;11809;56.390;-3.266;2023-01-28T00:04:23;102362.97;;;15.34;49.14
23281;BME280;11809;56.390;-3.266;2023-01-28T00:06:50;102370.97;;;15.32;49.35
23281;BME280;11809;56.390;-3.266;2023-01-28T00:09:19;102372.91;;;15.27;49.26
23281;BME280;11809;56.390;-3.266;2023-01-28T00:11:46;102372.06;;;15.25;49.32
23281;BME280;11809;56.390;-3.266;2023-01-28T00:14:13;102365.16;;;15.21;49.59
23281;BME280;11809;56.390;-3.266;2023-01-28T00:16:40;102362.53;;;15.19;49.68
23281;BME280;11809;56.390;-3.266;2023-01-28T00:19:07;102366.16;;;15.17;49.53
23281;BME280;11809;56.390;-3.266;2023-01-28T00:21:34;102355.72;;;15.12;49.67
23281;BME280;11809;56.390;-3.266;2023-01-28T00:24:01;102357.56;;;15.10;49.86
23281;BME280;11809;56.390;-3.266;2023-01-28T00:26:28;102362.94;;;15.07;49.79
23281;BME280;11809;56.390;-3.266;2023-01-28T00:28:56;102352.44;;;15.04;49.96
23281;BME280;11809;56.390;-3.266;2023-01-28T00:31:24;102353.38;;;15.03;49.81
23281;BME280;11809;56.390;-3.266;2023-01-28T00:33:54;102363.97;;;15.03;49.91
23281;BME280;11809;56.390;-3.266;2023-01-28T00:36:24;102355.28;;;14.98;49.84
23281;BME280;11809;56.390;-3.266;2023-01-28T00:38:53;102351.81;;;14.96;49.90
23281;BME280;11809;56.390;-3.266;2023-01-28T00:41:23;102356.22;;;14.97;49.96
23281;BME280;11809;56.390;-3.266;2023-01-28T00:43:51;102357.19;;;14.93;50.07
23281;BME280;11809;56.390;-3.266;2023-01-28T00:46:19;102359.03;;;14.91;50.20
23281;BME280;11809;56.390;-3.266;2023-01-28T00:48:46;102365.25;;;14.90;50.15
23281;BME280;11809;56.390;-3.266;2023-01-28T00:51:15;102365.34;;;14.87;50.20
23281;BME280;11809;56.390;-3.266;2023-01-28T00:53:43;102357.41;;;14.87;50.56
23281;BME280;11809;56.390;-3.266;2023-01-28T00:56:13;102353.09;;;14.85;50.49
23281;BME280;11809;56.390;-3.266;2023-01-28T00:58:41;102350.47;;;14.83;50.46
23281;BME280;11809;56.390;-3.266;2023-01-28T01:01:10;102347.88;;;14.82;50.43
23281;BME280;11809;56.390;-3.266;2023-01-28T01:03:38;102350.53;;;14.82;50.51
23281;BME280;11809;56.390;-3.266;2023-01-28T01:06:06;102354.13;;;14.79;50.69
23281;BME280;11809;56.390;-3.266;2023-01-28T01:08:33;102364.72;;;14.79;50.56
23281;BME280;11809;56.390;-3.266;2023-01-28T01:11:02;102370.03;;;14.79;50.71
23281;BME280;11809;56.390;-3.266;2023-01-28T01:13:30;102374.47;;;14.77;50.80
23281;BME280;11809;56.390;-3.266;2023-01-28T01:16:16;102375.47;;;14.73;50.62
23281;BME280;11809;56.390;-3.266;2023-01-28T01:18:43;102378.13;;;14.73;50.50
23281;BME280;11809;56.390;-3.266;2023-01-28T01:21:12;102375.47;;;14.73;50.92
23281;BME280;11809;56.390;-3.266;2023-01-28T01:23:40;102383.44;;;14.72;50.88
23281;BME280;11809;56.390;-3.266;2023-01-28T01:26:07;102374.66;;;14.71;50.96
23281;BME280;11809;56.390;-3.266;2023-01-28T01:28:34;102374.75;;;14.68;51.09
23281;BME280;11809;56.390;-3.266;2023-01-28T01:31:07;102380.91;;;14.69;50.88
23281;BME280;11809;56.390;-3.266;2023-01-28T01:33:34;102385.34;;;14.68;50.98
23281;BME280;11809;56.390;-3.266;2023-01-28T01:36:01;102390.63;;;14.68;51.06
23281;BME280;11809;56.390;-3.266;2023-01-28T01:38:28;102386.25;;;14.67;51.03
23281;BME280;11809;56.390;-3.266;2023-01-28T01:40:59;102390.66;;;14.67;51.04
23281;BME280;11809;56.390;-3.266;2023-01-28T01:46:12;102385.38;;;14.67;51.36
23281;BME280;11809;56.390;-3.266;2023-01-28T01:48:41;102390.72;;;14.65;51.25
23281;BME280;11809;56.390;-3.266;2023-01-28T01:51:14;102392.50;;;14.65;51.38
23281;BME280;11809;56.390;-3.266;2023-01-28T01:53:47;102399.56;;;14.64;51.21
23281;BME280;11809;56.390;-3.266;2023-01-28T01:56:18;102402.22;;;14.64;51.26
23281;BME280;11809;56.390;-3.266;2023-01-28T01:58:49;102398.75;;;14.62;51.50
23281;BME280;11809;56.390;-3.266;2023-01-28T02:01:22;102404.03;;;14.62;51.54
23281;BME280;11809;56.390;-3.266;2023-01-28T02:04:04;102406.69;;;14.62;51.21
23281;BME280;11809;56.390;-3.266;2023-01-28T02:06:34;102407.56;;;14.63;51.32
23281;BME280;11809;56.390;-3.266;2023-01-28T02:09:06;102397.94;;;14.60;51.53
23281;BME280;11809;56.390;-3.266;2023-01-28T02:11:33;102405.81;;;14.62;51.59
23281;BME280;11809;56.390;-3.266;2023-01-28T02:14:02;102401.44;;;14.61;51.43
23281;BME280;11809;56.390;-3.266;2023-01-28T02:16:30;102406.75;;;14.61;51.37
23281;BME280;11809;56.390;-3.266;2023-01-28T02:18:58;102405.88;;;14.60;51.65
23281;BME280;11809;56.390;-3.266;2023-01-28T02:21:49;102411.16;;;14.60;51.45
23281;BME280;11809;56.390;-3.266;2023-01-28T02:30:21;102419.09;;;14.60;51.67
23281;BME280;11809;56.390;-3.266;2023-01-28T02:32:55;102416.53;;;14.57;51.83
23281;BME280;11809;56.390;-3.266;2023-01-28T02:38:19;102406.84;;;14.56;51.57
23281;BME280;11809;56.390;-3.266;2023-01-28T02:40:53;102407.69;;;14.58;51.82
23281;BME280;11809;56.390;-3.266;2023-01-28T02:43:48;102407.69;;;14.58;51.80
23281;BME280;11809;56.390;-3.266;2023-01-28T02:46:31;102406.81;;;14.57;51.96
23281;BME280;11809;56.390;-3.266;2023-01-28T02:50:04;102405.94;;;14.57;52.08
23281;BME280;11809;56.390;-3.266;2023-01-28T02:52:53;102413.81;;;14.58;51.77
23281;BME280;11809;56.390;-3.266;2023-01-28T02:58:43;102413.81;;;14.58;51.99
23281;BME280;11809;56.390;-3.266;2023-01-28T03:01:32;102404.19;;;14.57;51.84
23281;BME280;11809;56.390;-3.266;2023-01-28T03:04:08;102423.56;;;14.58;51.89
23281;BME280;11809;56.390;-3.266;2023-01-28T03:06:44;102421.81;;;14.57;52.11
23281;BME280;11809;56.390;-3.266;2023-01-28T03:09:14;102430.56;;;14.59;52.20
23281;BME280;11809;56.390;-3.266;2023-01-28T03:12:26;102423.50;;;14.60;51.90
23281;BME280;11809;56.390;-3.266;2023-01-28T03:15:13;102420.88;;;14.60;52.09
23281;BME280;11809;56.390;-3.266;2023-01-28T03:18:01;102417.34;;;14.59;51.93
23281;BME280;11809;56.390;-3.266;2023-01-28T03:20:56;102411.16;;;14.60;52.20
23281;BME280;11809;56.390;-3.266;2023-01-28T03:23:56;102407.63;;;14.60;52.13
23281;BME280;11809;56.390;-3.266;2023-01-28T03:27:11;102406.69;;;14.62;52.16
23281;BME280;11809;56.390;-3.266;2023-01-28T03:30:00;102423.47;;;14.61;52.16
23281;BME280;11809;56.390;-3.266;2023-01-28T03:32:49;102414.63;;;14.62;52.08
23281;BME280;11809;56.390;-3.266;2023-01-28T03:35:35;102414.69;;;14.61;52.30
23281;BME280;11809;56.390;-3.266;2023-01-28T03:38:21;102414.63;;;14.62;52.45
23281;BME280;11809;56.390;-3.266;2023-01-28T03:40:52;102404.91;;;14.63;52.33
23281;BME280;11809;56.390;-3.266;2023-01-28T03:43:21;102411.06;;;14.63;52.22
23281;BME280;11809;56.390;-3.266;2023-01-28T03:45:48;102409.31;;;14.64;52.48
23281;BME280;11809;56.390;-3.266;2023-01-28T03:48:25;102415.44;;;14.64;52.32
23281;BME280;11809;56.390;-3.266;2023-01-28T03:50:57;102414.53;;;14.65;52.41
23281;BME280;11809;56.390;-3.266;2023-01-28T03:53:26;102414.53;;;14.65;52.27
23281;BME280;11809;56.390;-3.266;2023-01-28T03:55:54;102419.81;;;14.65;52.41
23281;BME280;11809;56.390;-3.266;2023-01-28T03:58:24;102430.41;;;14.65;52.45
23281;BME280;11809;56.390;-3.266;2023-01-28T04:00:52;102435.66;;;14.67;52.13
23281;BME280;11809;56.390;-3.266;2023-01-28T04:03:20;102440.09;;;14.66;52.44
23281;BME280;11809;56.390;-3.266;2023-01-28T04:05:59;102444.50;;;14.66;52.30
23281;BME280;11809;56.390;-3.266;2023-01-28T04:08:26;102440.09;;;14.66;52.32
23281;BME280;11809;56.390;-3.266;2023-01-28T04:10:54;102441.00;;;14.65;52.41
23281;BME280;11809;56.390;-3.266;2023-01-28T04:13:21;102444.47;;;14.67;52.38
23281;BME280;11809;56.390;-3.266;2023-01-28T04:15:49;102451.50;;;14.68;52.19
23281;BME280;11809;56.390;-3.266;2023-01-28T04:18:16;102459.53;;;14.65;52.63
23281;BME280;11809;56.390;-3.266;2023-01-28T04:20:42;102470.91;;;14.67;52.42
23281;BME280;11809;56.390;-3.266;2023-01-28T04:23:09;102464.72;;;14.68;52.42
23281;BME280;11809;56.390;-3.266;2023-01-28T04:25:36;102474.38;;;14.69;52.36
23281;BME280;11809;56.390;-3.266;2023-01-28T04:28:03;102473.53;;;14.69;52.46
23281;BME280;11809;56.390;-3.266;2023-01-28T04:30:30;102463.91;;;14.66;52.57
23281;BME280;11809;56.390;-3.266;2023-01-28T04:32:57;102468.25;;;14.69;52.49
23281;BME280;11809;56.390;-3.266;2023-01-28T04:35:24;102465.53;;;14.70;52.39
23281;BME280;11809;56.390;-3.266;2023-01-28T04:37:51;102456.78;;;14.68;52.58
23281;BME280;11809;56.390;-3.266;2023-01-28T04:40:18;102466.50;;;14.68;52.33
23281;BME280;11809;56.390;-3.266;2023-01-28T04:42:52;102471.75;;;14.69;52.43
23281;BME280;11809;56.390;-3.266;2023-01-28T04:45:19;102470.91;;;14.67;52.43
23281;BME280;11809;56.390;-3.266;2023-01-28T04:47:46;102463.78;;;14.69;52.46
23281;BME280;11809;56.390;-3.266;2023-01-28T04:50:13;102460.25;;;14.70;52.66
23281;BME280;11809;56.390;-3.266;2023-01-28T04:52:40;102465.53;;;14.70;52.72
23281;BME280;11809;56.390;-3.266;2023-01-28T04:55:08;102470.84;;;14.70;52.42
23281;BME280;11809;56.390;-3.266;2023-01-28T04:57:35;102472.66;;;14.68;52.71
23281;BME280;11809;56.390;-3.266;2023-01-28T05:00:03;102470.03;;;14.68;52.57
23281;BME280;11809;56.390;-3.266;2023-01-28T05:02:31;102457.69;;;14.67;52.82
23281;BME280;11809;56.390;-3.266;2023-01-28T05:04:57;102462.09;;;14.68;52.73
23281;BME280;11809;56.390;-3.266;2023-01-28T05:07:27;102466.44;;;14.69;52.76
23281;BME280;11809;56.390;-3.266;2023-01-28T05:09:53;102456.72;;;14.70;52.59
23281;BME280;11809;56.390;-3.266;2023-01-28T05:12:20;102449.66;;;14.70;52.72
23281;BME280;11809;56.390;-3.266;2023-01-28T05:14:47;102435.63;;;14.68;52.88
23281;BME280;11809;56.390;-3.266;2023-01-28T05:17:14;102442.63;;;14.69;52.64
23281;BME280;11809;56.390;-3.266;2023-01-28T05:19:41;102437.41;;;14.68;52.87
23281;BME280;11809;56.390;-3.266;2023-01-28T05:22:09;102441.72;;;14.70;52.71
23281;BME280;11809;56.390;-3.266;2023-01-28T05:24:36;102432.97;;;14.68;52.87
23281;BME280;11809;56.390;-3.266;2023-01-28T05:27:02;102428.59;;;14.67;52.76
23281;BME280;11809;56.390;-3.266;2023-01-28T05:29:29;102433.78;;;14.70;52.93
23281;BME280;11809;56.390;-3.266;2023-01-28T05:31:56;102433.00;;;14.67;52.87
23281;BME280;11809;56.390;-3.266;2023-01-28T05:34:23;102447.03;;;14.70;52.66
23281;BME280;11809;56.390;-3.266;2023-01-28T05:36:50;102446.22;;;14.68;53.18
23281;BME280;11809;56.390;-3.266;2023-01-28T05:39:17;102449.63;;;14.72;53.22
23281;BME280;11809;56.390;-3.266;2023-01-28T05:41:44;102448.78;;;14.70;52.91
23281;BME280;11809;56.390;-3.266;2023-01-28T05:44:11;102451.41;;;14.71;52.89
23281;BME280;11809;56.390;-3.266;2023-01-28T05:46:38;102440.78;;;14.73;52.85
23281;BME280;11809;56.390;-3.266;2023-01-28T05:49:11;102449.53;;;14.75;52.63
23281;BME280;11809;56.390;-3.266;2023-01-28T05:51:39;102437.16;;;14.75;52.74
23281;BME280;11809;56.390;-3.266;2023-01-28T05:54:07;102435.34;;;14.77;52.95
23281;BME280;11809;56.390;-3.266;2023-01-28T05:56:34;102441.59;;;14.75;52.85
23281;BME280;11809;56.390;-3.266;2023-01-28T05:59:03;102447.75;;;14.75;52.95
23281;BME280;11809;56.390;-3.266;2023-01-28T06:01:30;102449.50;;;14.76;52.80
23281;BME280;11809;56.390;-3.266;2023-01-28T06:03:57;102434.59;;;14.74;52.98
23281;BME280;11809;56.390;-3.266;2023-01-28T06:06:26;102437.25;;;14.72;52.75
23281;BME280;11809;56.390;-3.266;2023-01-28T06:08:52;102439.78;;;14.77;52.93
23281;BME280;11809;56.390;-3.266;2023-01-28T06:11:19;102438.09;;;14.74;52.84
23281;BME280;11809;56.390;-3.266;2023-01-28T06:13:46;102442.53;;;14.72;53.09
23281;BME280;11809;56.390;-3.266;2023-01-28T06:16:13;102448.56;;;14.77;53.14
23281;BME280;11809;56.390;-3.266;2023-01-28T06:18:40;102446.56;;;14.85;52.96
23281;BME280;11809;56.390;-3.266;2023-01-28T06:21:07;102445.41;;;14.95;52.99
23281;BME280;11809;56.390;-3.266;2023-01-28T06:23:34;102441.75;;;14.99;52.30
23281;BME280;11809;56.390;-3.266;2023-01-28T06:26:01;102447.81;;;15.03;52.34
23281;BME280;11809;56.390;-3.266;2023-01-28T06:28:28;102446.78;;;15.08;52.35
23281;BME280;11809;56.390;-3.266;2023-01-28T06:30:55;102463.41;;;15.12;52.31
23281;BME280;11809;56.390;-3.266;2023-01-28T06:33:22;102466.06;;;15.12;52.31
23281;BME280;11809;56.390;-3.266;2023-01-28T06:35:49;102468.91;;;15.06;52.42
23281;BME280;11809;56.390;-3.266;2023-01-28T06:38:16;102468.00;;;15.07;52.50
23281;BME280;11809;56.390;-3.266;2023-01-28T06:40:43;102480.47;;;14.73;50.68
23281;BME280;11809;56.390;-3.266;2023-01-28T06:43:10;102476.69;;;14.81;52.48
23281;BME280;11809;56.390;-3.266;2023-01-28T06:45:37;102484.25;;;14.95;52.56
23281;BME280;11809;56.390;-3.266;2023-01-28T06:48:04;102493.72;;;15.03;52.68
23281;BME280;11809;56.390;-3.266;2023-01-28T06:50:34;102498.75;;;14.82;50.95
23281;BME280;11809;56.390;-3.266;2023-01-28T06:53:01;102492.81;;;14.41;50.11
23281;BME280;11809;56.390;-3.266;2023-01-28T06:55:27;102496.19;;;14.13;50.13
23281;BME280;11809;56.390;-3.266;2023-01-28T06:57:54;102496.47;;;14.01;50.52
23281;BME280;11809;56.390;-3.266;2023-01-28T07:00:21;102486.16;;;14.24;51.37
23281;BME280;11809;56.390;-3.266;2023-01-28T07:02:48;102495.53;;;14.38;51.82
23281;BME280;11809;56.390;-3.266;2023-01-28T07:05:15;102490.03;;;14.46;52.03
23281;BME280;11809;56.390;-3.266;2023-01-28T07:07:42;102490.69;;;14.54;52.04
23281;BME280;11809;56.390;-3.266;2023-01-28T07:10:10;102486.19;;;14.57;52.37
23281;BME280;11809;56.390;-3.266;2023-01-28T07:12:37;102486.06;;;14.62;52.50
23281;BME280;11809;56.390;-3.266;2023-01-28T07:15:04;102485.91;;;14.68;52.57
23281;BME280;11809;56.390;-3.266;2023-01-28T07:17:32;102483.19;;;14.70;52.47
23281;BME280;11809;56.390;-3.266;2023-01-28T07:19:58;102494.56;;;14.73;52.72
23281;BME280;11809;56.390;-3.266;2023-01-28T07:22:25;102496.22;;;14.77;52.71
23281;BME280;11809;56.390;-3.266;2023-01-28T07:24:52;102490.84;;;14.80;52.79
23281;BME280;11809;56.390;-3.266;2023-01-28T07:27:19;102497.78;;;14.84;53.03
23281;BME280;11809;56.390;-3.266;2023-01-28T07:29:46;102495.97;;;14.86;52.89
23281;BME280;11809;56.390;-3.266;2023-01-28T07:32:13;102502.06;;;14.90;52.92
23281;BME280;11809;56.390;-3.266;2023-01-28T07:34:40;102521.41;;;14.90;53.09
23281;BME280;11809;56.390;-3.266;2023-01-28T07:37:08;102518.69;;;14.93;53.18
23281;BME280;11809;56.390;-3.266;2023-01-28T07:39:35;102522.22;;;14.94;53.33
23281;BME280;11809;56.390;-3.266;2023-01-28T07:42:02;102519.56;;;14.94;53.18
23281;BME280;11809;56.390;-3.266;2023-01-28T07:44:29;102529.19;;;14.98;53.25
23281;BME280;11809;56.390;-3.266;2023-01-28T07:46:56;102530.00;;;14.98;53.21
23281;BME280;11809;56.390;-3.266;2023-01-28T07:49:23;102535.31;;;14.98;53.51
23281;BME280;11809;56.390;-3.266;2023-01-28T07:51:50;102544.09;;;15.00;53.61
23281;BME280;11809;56.390;-3.266;2023-01-28T07:54:17;102544.94;;;15.01;53.48
23281;BME280;11809;56.390;-3.266;2023-01-28T07:56:44;102539.66;;;15.01;53.47
23281;BME280;11809;56.390;-3.266;2023-01-28T07:59:11;102536.06;;;15.03;53.29
23281;BME280;11809;56.390;-3.266;2023-01-28T08:01:38;102535.16;;;15.04;53.29
23281;BME280;11809;56.390;-3.266;2023-01-28T08:04:05;102539.47;;;15.07;53.40
23281;BME280;11809;56.390;-3.266;2023-01-28T08:06:32;102544.75;;;15.08;53.51
23281;BME280;11809;56.390;-3.266;2023-01-28T08:09:04;102554.34;;;15.12;53.33
23281;BME280;11809;56.390;-3.266;2023-01-28T08:11:31;102549.84;;;15.14;53.49
23281;BME280;11809;56.390;-3.266;2023-01-28T08:13:58;102557.72;;;15.17;53.42
23281;BME280;11809;56.390;-3.266;2023-01-28T08:16:26;102547.03;;;15.21;53.50
23281;BME280;11809;56.390;-3.266;2023-01-28T08:18:54;102554.91;;;15.24;53.48
23281;BME280;11809;56.390;-3.266;2023-01-28T08:21:21;102555.72;;;15.26;53.16
23281;BME280;11809;56.390;-3.266;2023-01-28T08:23:48;102555.72;;;15.26;53.23
23281;BME280;11809;56.390;-3.266;2023-01-28T08:26:15;102553.03;;;15.27;53.19
23281;BME280;11809;56.390;-3.266;2023-01-28T08:28:42;102552.16;;;15.27;53.20
23281;BME280;11809;56.390;-3.266;2023-01-28T08:31:09;102549.38;;;15.31;53.41
23281;BME280;11809;56.390;-3.266;2023-01-28T08:33:36;102555.47;;;15.35;53.48
23281;BME280;11809;56.390;-3.266;2023-01-28T08:36:04;102558.09;;;15.35;53.48
23281;BME280;11809;56.390;-3.266;2023-01-28T08:38:31;102558.03;;;15.36;53.26
23281;BME280;11809;56.390;-3.266;2023-01-28T08:40:58;102558.97;;;15.35;53.20
23281;BME280;11809;56.390;-3.266;2023-01-28T08:43:25;102570.94;;;15.19;52.38
23281;BME280;11809;56.390;-3.266;2023-01-28T08:45:52;102572.72;;;15.17;51.83
23281;BME280;11809;56.390;-3.266;2023-01-28T08:48:19;102574.47;;;15.18;52.31
23281;BME280;11809;56.390;-3.266;2023-01-28T08:50:47;102564.59;;;15.25;52.44
23281;BME280;11809;56.390;-3.266;2023-01-28T08:53:17;102568.78;;;15.32;52.60
23281;BME280;11809;56.390;-3.266;2023-01-28T08:55:45;102564.31;;;15.34;52.78
23281;BME280;11809;56.390;-3.266;2023-01-28T08:58:14;102559.81;;;15.36;52.88
23281;BME280;11809;56.390;-3.266;2023-01-28T09:00:42;102550.06;;;15.38;52.77
23281;BME280;11809;56.390;-3.266;2023-01-28T09:03:09;102544.69;;;15.41;52.90
23281;BME280;11809;56.390;-3.266;2023-01-28T09:05:37;102542.84;;;15.43;52.75
23281;BME280;11809;56.390;-3.266;2023-01-28T09:08:07;102547.16;;;15.47;53.06
23281;BME280;11809;56.390;-3.266;2023-01-28T09:10:34;102553.34;;;15.47;52.90
23281;BME280;11809;56.390;-3.266;2023-01-28T09:13:04;102560.38;;;15.48;52.79
23281;BME280;11809;56.390;-3.266;2023-01-28T09:15:32;102546.25;;;15.48;52.71
23281;BME280;11809;56.390;-3.266;2023-01-28T09:18:00;102562.06;;;15.51;52.68
23281;BME280;11809;56.390;-3.266;2023-01-28T09:20:27;102569.09;;;15.52;52.90
23281;BME280;11809;56.390;-3.266;2023-01-28T09:22:54;102578.88;;;15.50;52.83
23281;BME280;11809;56.390;-3.266;2023-01-28T09:25:21;102575.44;;;15.46;52.81
23281;BME280;11809;56.390;-3.266;2023-01-28T09:27:48;102579.81;;;15.49;52.76
23281;BME280;11809;56.390;-3.266;2023-01-28T09:30:16;102576.22;;;15.50;52.78
23281;BME280;11809;56.390;-3.266;2023-01-28T09:32:43;102576.22;;;15.50;52.98
23281;BME280;11809;56.390;-3.266;2023-01-28T09:35:10;102580.72;;;15.48;52.98
23281;BME280;11809;56.390;-3.266;2023-01-28T09:37:37;102589.47;;;15.50;52.89
23281;BME280;11809;56.390;-3.266;2023-01-28T09:40:05;102587.69;;;15.50;53.00
23281;BME280;11809;56.390;-3.266;2023-01-28T09:42:43;102596.53;;;15.51;52.75
23281;BME280;11809;56.390;-3.266;2023-01-28T09:45:24;102595.69;;;15.49;52.82
23281;BME280;11809;56.390;-3.266;2023-01-28T09:47:59;102604.47;;;15.51;52.76
23281;BME280;11809;56.390;-3.266;2023-01-28T09:50:35;102604.47;;;15.51;52.85
23281;BME280;11809;56.390;-3.266;2023-01-28T09:53:20;102607.44;;;15.39;51.45
23281;BME280;11809;56.390;-3.266;2023-01-28T09:55:56;102611.25;;;14.98;50.58
23281;BME280;11809;56.390;-3.266;2023-01-28T09:58:24;102607.81;;;14.94;50.84
23281;BME280;11809;56.390;-3.266;2023-01-28T10:09:46;102611.69;;;14.81;51.81
23281;BME280;11809;56.390;-3.266;2023-01-28T10:18:10;102593.47;;;15.01;52.66
23281;BME280;11809;56.390;-3.266;2023-01-28T10:21:01;102595.16;;;15.05;52.30
23281;BME280;11809;56.390;-3.266;2023-01-28T10:25:59;102596.75;;;15.11;52.84
23281;BME280;11809;56.390;-3.266;2023-01-28T10:28:29;102592.28;;;15.13;53.50
23281;BME280;11809;56.390;-3.266;2023-01-28T10:30:58;102592.22;;;15.14;53.84
23281;BME280;11809;56.390;-3.266;2023-01-28T10:33:51;102587.72;;;15.18;53.29
23281;BME280;11809;56.390;-3.266;2023-01-28T10:36:18;102590.22;;;15.23;53.42
23281;BME280;11809;56.390;-3.266;2023-01-28T10:38:45;102586.53;;;15.28;53.38
23281;BME280;11809;56.390;-3.266;2023-01-28T10:41:18;102588.22;;;15.32;53.64
23281;BME280;11809;56.390;-3.266;2023-01-28T10:43:46;102577.56;;;15.34;53.80
23281;BME280;11809;56.390;-3.266;2023-01-28T10:46:28;102580.06;;;15.38;53.78
23281;BME280;11809;56.390;-3.266;2023-01-28T10:49:18;102585.50;;;15.34;52.78
23281;BME280;11809;56.390;-3.266;2023-01-28T10:51:48;102575.72;;;15.36;53.20
23281;BME280;11809;56.390;-3.266;2023-01-28T10:54:23;102575.53;;;15.42;53.34
23281;BME280;11809;56.390;-3.266;2023-01-28T10:56:54;102575.44;;;15.46;53.20
23281;BME280;11809;56.390;-3.266;2023-01-28T10:59:32;102568.28;;;15.50;53.38
23281;BME280;11809;56.390;-3.266;2023-01-28T11:02:03;102566.44;;;15.52;53.30
23281;BME280;11809;56.390;-3.266;2023-01-28T11:04:33;102568.13;;;15.54;53.37
23281;BME280;11809;56.390;-3.266;2023-01-28T11:07:15;102557.44;;;15.57;53.39
23281;BME280;11809;56.390;-3.266;2023-01-28T11:09:47;102559.13;;;15.60;53.29
23281;BME280;11809;56.390;-3.266;2023-01-28T11:12:29;102559.03;;;15.63;53.43
23281;BME280;11809;56.390;-3.266;2023-01-28T11:15:04;102558.94;;;15.66;53.73
23281;BME280;11809;56.390;-3.266;2023-01-28T11:17:34;102550.91;;;15.69;53.63
23281;BME280;11809;56.390;-3.266;2023-01-28T11:20:18;102543.75;;;15.71;53.52
23281;BME280;11809;56.390;-3.266;2023-01-28T11:22:47;102536.59;;;15.74;53.45
23281;BME280;11809;56.390;-3.266;2023-01-28T11:27:53;102536.41;;;15.81;53.43
23281;BME280;11809;56.390;-3.266;2023-01-28T11:30:30;102542.44;;;15.86;53.63
23281;BME280;11809;56.390;-3.266;2023-01-28T11:35:39;102526.44;;;15.89;53.66
23281;BME280;11809;56.390;-3.266;2023-01-28T11:38:20;102533.44;;;15.90;53.22
23281;BME280;11809;56.390;-3.266;2023-01-28T11:40:57;102523.81;;;15.87;53.50
23281;BME280;11809;56.390;-3.266;2023-01-28T11:43:29;102526.44;;;15.89;53.37
23281;BME280;11809;56.390;-3.266;2023-01-28T11:49:04;102515.81;;;15.89;53.68
23281;BME280;11809;56.390;-3.266;2023-01-28T11:59:00;102511.91;;;15.72;53.11
23281;BME280;11809;56.390;-3.266;2023-01-28T12:20:25;102503.56;;;15.57;51.08
23281;BME280;11809;56.390;-3.266;2023-01-28T12:22:58;102504.44;;;15.57;51.74
23281;BME280;11809;56.390;-3.266;2023-01-28T12:44:58;102493.31;;;15.45;52.92
23281;BME280;11809;56.390;-3.266;2023-01-28T12:47:34;102484.56;;;15.43;53.15
23281;BME280;11809;56.390;-3.266;2023-01-28T12:50:17;102492.53;;;15.41;53.37
23281;BME280;11809;56.390;-3.266;2023-01-28T12:52:54;102484.59;;;15.41;53.10
23281;BME280;11809;56.390;-3.266;2023-01-28T12:55:43;102486.41;;;15.41;53.15
23281;BME280;11809;56.390;-3.266;2023-01-28T12:58:18;102486.41;;;15.41;53.25
23281;BME280;11809;56.390;-3.266;2023-01-28T13:00:49;102474.94;;;15.40;53.41
23281;BME280;11809;56.390;-3.266;2023-01-28T13:03:27;102479.34;;;15.40;53.31
23281;BME280;11809;56.390;-3.266;2023-01-28T13:06:05;102468.78;;;15.38;53.34
23281;BME280;11809;56.390;-3.266;2023-01-28T13:08:34;102473.25;;;15.38;53.28
23281;BME280;11809;56.390;-3.266;2023-01-28T13:11:03;102466.13;;;15.38;53.50
23281;BME280;11809;56.390;-3.266;2023-01-28T13:13:33;102463.53;;;15.37;53.36
23281;BME280;11809;56.390;-3.266;2023-01-28T13:16:01;102455.59;;;15.37;53.55
23281;BME280;11809;56.390;-3.266;2023-01-28T13:26:41;102439.78;;;15.34;53.45
23281;BME280;11809;56.390;-3.266;2023-01-28T13:31:43;102421.34;;;15.31;53.46
23281;BME280;11809;56.390;-3.266;2023-01-28T13:39:44;102419.63;;;15.30;53.53
23281;BME280;11809;56.390;-3.266;2023-01-28T13:42:25;102410.84;;;15.28;53.75
23281;BME280;11809;56.390;-3.266;2023-01-28T13:44:54;102411.78;;;15.27;53.58
23281;BME280;11809;56.390;-3.266;2023-01-28T13:47:30;102417.94;;;15.27;53.70
23281;BME280;11809;56.390;-3.266;2023-01-28T13:50:32;102407.38;;;15.26;53.74
23281;BME280;11809;56.390;-3.266;2023-01-28T13:56:16;102402.97;;;15.26;53.75
23281;BME280;11809;56.390;-3.266;2023-01-28T14:12:32;102387.13;;;14.68;48.36
23281;BME280;11809;56.390;-3.266;2023-01-28T14:15:06;102385.03;;;14.79;49.87
23281;BME280;11809;56.390;-3.266;2023-01-28T14:17:48;102383.81;;;14.89;50.03
23281;BME280;11809;56.390;-3.266;2023-01-28T14:20:26;102372.25;;;14.93;51.08
23281;BME280;11809;56.390;-3.266;2023-01-28T14:23:05;102367.78;;;14.93;50.96
23281;BME280;11809;56.390;-3.266;2023-01-28T14:28:54;102366.09;;;14.91;50.54
23281;BME280;11809;56.390;-3.266;2023-01-28T14:31:35;102368.50;;;14.98;51.28
23281;BME280;11809;56.390;-3.266;2023-01-28T14:34:21;102370.78;;;14.83;49.24
23281;BME280;11809;56.390;-3.266;2023-01-28T14:36:50;102373.81;;;14.69;48.94
23281;BME280;11809;56.390;-3.266;2023-01-28T14:39:21;102373.66;;;14.75;50.30
23281;BME280;11809;56.390;-3.266;2023-01-28T14:41:54;102366.44;;;14.80;50.99
23281;BME280;11809;56.390;-3.266;2023-01-28T14:44:37;102366.25;;;14.86;51.37
23281;BME280;11809;56.390;-3.266;2023-01-28T14:53:18;102371.16;;;14.98;51.90
23281;BME280;11809;56.390;-3.266;2023-01-28T14:56:07;102372.91;;;14.99;52.13
23281;BME280;11809;56.390;-3.266;2023-01-28T14:58:52;102378.13;;;15.02;52.35
23281;BME280;11809;56.390;-3.266;2023-01-28T15:01:23;102378.06;;;15.04;52.46
23281;BME280;11809;56.390;-3.266;2023-01-28T15:03:51;102385.97;;;15.05;52.40
23281;BME280;11809;56.390;-3.266;2023-01-28T15:06:24;102386.78;;;15.07;52.36
23281;BME280;11809;56.390;-3.266;2023-01-28T15:08:52;102388.38;;;15.13;52.58
23281;BME280;11809;56.390;-3.266;2023-01-28T15:11:22;102388.22;;;15.17;52.46